createdAt,value
2019-01-13T00:01:00.146Z,12.07
2019-01-13T00:04:04.635Z,6.90
2019-01-13T00:07:08.980Z,7.00
2019-01-13T00:10:13.338Z,11.90
2019-01-13T00:13:17.612Z,7.63
2019-01-13T00:16:22.108Z,7.63
2019-01-13T00:19:26.446Z,14.73
2019-01-13T00:22:30.749Z,7.47
2019-01-13T00:25:35.024Z,10.93
2019-01-13T00:28:39.315Z,5.70
2019-01-13T00:31:43.628Z,9.23
2019-01-13T00:34:47.931Z,8.37
2019-01-13T00:37:52.251Z,10.70
2019-01-13T00:40:56.676Z,7.13
2019-01-13T00:44:01.010Z,9.97
2019-01-13T00:47:05.360Z,7.53
2019-01-13T00:50:11.910Z,7.40
2019-01-13T00:53:16.214Z,10.60
2019-01-13T00:56:20.495Z,9.60
2019-01-13T00:59:24.778Z,8.70
2019-01-13T01:02:29.115Z,16.93
2019-01-13T01:05:33.399Z,17.80
2019-01-13T01:08:37.679Z,10.60
2019-01-13T01:11:42.068Z,23.23
2019-01-13T01:14:46.418Z,10.33
2019-01-13T01:17:50.753Z,13.60
2019-01-13T01:20:55.039Z,9.33
2019-01-13T01:23:59.354Z,14.07
2019-01-13T01:27:03.633Z,14.17
2019-01-13T01:30:14.117Z,17.20
2019-01-13T01:33:25.710Z,8.53
2019-01-13T01:36:24.405Z,10.37
2019-01-13T01:39:28.643Z,8.53
2019-01-13T01:42:33.036Z,10.17
2019-01-13T01:45:37.350Z,15.97
2019-01-13T01:48:41.711Z,9.83
2019-01-13T01:51:46.022Z,10.87
2019-01-13T01:54:50.324Z,13.17
2019-01-13T01:57:54.728Z,12.53
2019-01-13T02:00:59.083Z,7.33
2019-01-13T02:04:03.411Z,14.17
2019-01-13T02:07:07.744Z,11.40
2019-01-13T02:10:14.768Z,4.43
2019-01-13T02:13:19.108Z,9.40
2019-01-13T02:16:23.393Z,12.50
2019-01-13T02:19:27.954Z,18.03
2019-01-13T02:22:32.308Z,8.00
2019-01-13T02:25:36.615Z,12.80
2019-01-13T02:28:40.875Z,10.80
2019-01-13T02:31:45.314Z,7.50
2019-01-13T02:34:49.603Z,7.17
2019-01-13T02:37:54.097Z,11.90
2019-01-13T02:40:58.368Z,7.43
2019-01-13T02:44:02.630Z,13.10
2019-01-13T02:47:07.009Z,12.00
2019-01-13T02:50:12.241Z,9.23
2019-01-13T02:53:16.550Z,8.37
2019-01-13T02:56:20.860Z,18.50
2019-01-13T02:59:25.214Z,10.37
2019-01-13T03:02:29.498Z,15.40
2019-01-13T03:05:33.899Z,18.13
2019-01-13T03:08:38.303Z,16.10
2019-01-13T03:11:42.609Z,8.90
2019-01-13T03:14:46.977Z,15.80
2019-01-13T03:17:51.543Z,12.33
2019-01-13T03:20:55.898Z,16.07
2019-01-13T03:24:00.181Z,16.70
2019-01-13T03:27:04.489Z,14.93
2019-01-13T03:30:11.774Z,21.97
2019-01-13T03:33:16.154Z,16.77
2019-01-13T03:36:20.419Z,13.57
2019-01-13T03:39:24.977Z,11.50
2019-01-13T03:42:29.253Z,14.10
2019-01-13T03:45:33.543Z,12.67
2019-01-13T03:48:37.813Z,12.53
2019-01-13T03:51:42.069Z,12.00
2019-01-13T03:54:46.395Z,14.33
2019-01-13T03:57:50.837Z,11.43
2019-01-13T04:00:55.137Z,19.07
2019-01-13T04:03:59.388Z,15.20
2019-01-13T04:07:03.664Z,10.80
2019-01-13T04:10:08.874Z,13.70
2019-01-13T04:13:13.229Z,15.40
2019-01-13T04:16:17.504Z,10.50
2019-01-13T04:19:21.893Z,15.77
2019-01-13T04:22:26.188Z,11.77
2019-01-13T04:25:30.458Z,13.10
2019-01-13T04:28:34.778Z,9.07
2019-01-13T04:31:39.178Z,13.00
2019-01-13T04:34:43.523Z,19.73
2019-01-13T04:37:47.877Z,19.40
2019-01-13T04:40:52.219Z,13.20
2019-01-13T04:43:56.497Z,15.50
2019-01-13T04:47:00.802Z,17.60
2019-01-13T04:50:06.242Z,16.00
2019-01-13T04:53:10.487Z,11.60
2019-01-13T04:56:14.832Z,9.80
2019-01-13T04:59:19.149Z,11.40
2019-01-13T05:02:23.478Z,10.00
2019-01-13T05:05:27.805Z,16.00
2019-01-13T05:08:34.508Z,11.60
2019-01-13T05:11:38.812Z,11.87
2019-01-13T05:14:43.114Z,14.07
2019-01-13T05:17:47.506Z,13.77
2019-01-13T05:20:51.847Z,13.70
2019-01-13T05:23:56.083Z,9.27
2019-01-13T05:27:00.446Z,15.87
2019-01-13T05:30:06.341Z,14.93
2019-01-13T05:33:10.698Z,19.53
2019-01-13T05:36:15.078Z,16.30
2019-01-13T05:39:19.403Z,15.20
2019-01-13T05:42:23.758Z,16.83
2019-01-13T05:45:28.079Z,16.07
2019-01-13T05:48:32.406Z,16.30
2019-01-13T05:51:36.722Z,17.23
2019-01-13T05:54:40.992Z,17.53
2019-01-13T05:57:45.459Z,20.20
2019-01-13T06:00:49.839Z,19.57
2019-01-13T06:03:54.299Z,20.23
2019-01-13T06:06:58.633Z,23.43
2019-01-13T06:10:02.939Z,23.43
2019-01-13T06:13:07.249Z,23.67
2019-01-13T06:16:11.544Z,19.00
2019-01-13T06:19:15.857Z,20.87
2019-01-13T06:22:20.168Z,27.37
2019-01-13T06:25:24.532Z,28.40
2019-01-13T06:28:28.814Z,25.53
2019-01-13T06:31:33.144Z,17.70
2019-01-13T06:34:37.485Z,18.70
2019-01-13T06:37:41.835Z,18.90
2019-01-13T06:40:46.172Z,22.53
2019-01-13T06:43:50.433Z,19.90
2019-01-13T06:46:54.747Z,19.27
2019-01-13T06:49:59.067Z,20.03
2019-01-13T06:53:05.187Z,19.70
2019-01-13T06:56:09.657Z,21.93
2019-01-13T06:59:13.984Z,19.53
2019-01-13T07:02:18.297Z,18.23
2019-01-13T07:05:22.628Z,19.67
2019-01-13T07:08:26.919Z,17.30
2019-01-13T07:11:31.308Z,17.70
2019-01-13T07:14:35.582Z,22.37
2019-01-13T07:17:40.003Z,13.03
2019-01-13T07:20:44.288Z,16.60
2019-01-13T07:23:49.693Z,17.97
2019-01-13T07:26:53.961Z,17.80
2019-01-13T07:29:58.299Z,14.03
2019-01-13T07:33:02.591Z,15.13
2019-01-13T07:36:06.957Z,13.40
2019-01-13T07:39:11.308Z,16.13
2019-01-13T07:42:15.663Z,11.17
2019-01-13T07:45:22.272Z,12.53
2019-01-13T07:48:26.583Z,11.50
2019-01-13T07:51:30.862Z,11.20
2019-01-13T07:54:35.156Z,15.03
2019-01-13T07:57:39.460Z,14.10
2019-01-13T08:00:43.882Z,11.20
2019-01-13T08:03:48.148Z,9.87
2019-01-13T08:06:52.448Z,8.50
2019-01-13T08:09:56.746Z,8.47
2019-01-13T08:13:01.107Z,7.73
2019-01-13T08:16:05.531Z,8.60
2019-01-13T08:19:09.853Z,6.47
2019-01-13T08:22:14.156Z,8.03
2019-01-13T08:25:19.660Z,8.93
2019-01-13T08:28:23.947Z,7.20
2019-01-13T08:31:28.222Z,6.17
2019-01-13T08:34:32.536Z,5.30
2019-01-13T08:37:36.858Z,5.90
2019-01-13T08:40:41.178Z,6.20
2019-01-13T08:43:46.581Z,5.10
2019-01-13T08:46:50.864Z,5.83
2019-01-13T08:49:55.188Z,5.67
2019-01-13T08:52:59.579Z,6.10
2019-01-13T08:56:03.914Z,6.40
2019-01-13T08:59:08.202Z,5.90
2019-01-13T09:02:12.526Z,5.83
2019-01-13T09:05:17.078Z,5.60
2019-01-13T09:08:21.353Z,4.93
2019-01-13T09:11:25.658Z,5.90
2019-01-13T09:14:30.078Z,6.50
2019-01-13T09:17:34.402Z,5.13
2019-01-13T09:20:38.861Z,4.40
2019-01-13T09:23:43.182Z,6.93
2019-01-13T09:26:51.169Z,5.07
2019-01-13T09:29:53.556Z,5.50
2019-01-13T09:32:58.226Z,6.50
2019-01-13T09:36:02.550Z,6.40
2019-01-13T09:39:08.492Z,5.53
2019-01-13T09:42:12.782Z,6.10
2019-01-13T09:45:17.134Z,4.87
2019-01-13T09:48:22.244Z,6.47
2019-01-13T09:51:26.717Z,5.20
2019-01-13T09:54:31.028Z,5.43
2019-01-13T09:57:35.318Z,4.77
2019-01-13T10:00:39.647Z,4.67
2019-01-13T10:03:44.014Z,3.30
2019-01-13T10:06:48.339Z,3.73
2019-01-13T10:09:54.806Z,4.23
2019-01-13T10:12:59.176Z,4.03
2019-01-13T10:16:03.468Z,3.00
2019-01-13T10:19:07.844Z,4.40
2019-01-13T10:22:12.260Z,3.00
2019-01-13T10:25:16.872Z,3.63
2019-01-13T10:28:21.296Z,3.00
2019-01-13T10:31:25.623Z,3.40
2019-01-13T10:34:29.926Z,3.13
2019-01-13T10:37:34.268Z,2.80
2019-01-13T10:40:38.578Z,3.80
2019-01-13T10:43:42.942Z,3.10
2019-01-13T10:46:47.226Z,2.93
2019-01-13T10:49:51.647Z,2.67
2019-01-13T10:52:57.808Z,2.30
2019-01-13T10:56:02.197Z,2.30
2019-01-13T10:59:06.567Z,2.67
2019-01-13T11:02:11.006Z,2.17
2019-01-13T11:05:15.744Z,2.40
2019-01-13T11:08:20.062Z,2.30
2019-01-13T11:11:24.501Z,1.87
2019-01-13T11:14:28.951Z,4.00
2019-01-13T11:17:33.401Z,2.00
2019-01-13T11:20:43.662Z,2.40
2019-01-13T11:23:48.221Z,2.30
2019-01-13T11:26:54.174Z,2.90
2019-01-13T11:30:17.721Z,1.90
2019-01-13T11:46:39.135Z,2.80
2019-01-13T11:54:55.341Z,1.90
2019-01-13T11:58:03.897Z,2.13
2019-01-13T12:01:09.821Z,2.27
2019-01-13T12:04:14.187Z,6.43
2019-01-13T12:07:18.497Z,2.33
2019-01-13T12:10:22.858Z,2.23
2019-01-13T12:13:28.142Z,1.57
2019-01-13T12:16:32.446Z,2.23
2019-01-13T12:19:36.842Z,2.27
2019-01-13T12:22:41.186Z,1.67
2019-01-13T12:25:52.381Z,1.80
2019-01-13T12:28:51.513Z,1.43
2019-01-13T12:31:55.890Z,2.60
2019-01-13T12:35:00.247Z,1.63
2019-01-13T12:38:07.328Z,1.50
2019-01-13T12:41:11.719Z,1.27
2019-01-13T12:44:16.146Z,1.73
2019-01-13T12:47:20.490Z,1.63
2019-01-13T12:50:26.765Z,2.07
2019-01-13T12:53:31.211Z,2.47
2019-01-13T12:56:35.512Z,1.80
2019-01-13T12:59:39.840Z,1.60
2019-01-13T13:02:45.861Z,1.50
2019-01-13T13:06:13.426Z,1.70
2019-01-13T13:09:22.207Z,3.60
2019-01-13T13:12:41.926Z,4.37
2019-01-13T13:16:51.132Z,2.60
2019-01-13T13:19:36.286Z,2.00
2019-01-13T13:23:05.494Z,1.83
2019-01-13T13:26:18.681Z,1.70
2019-01-13T13:29:28.016Z,1.70
2019-01-13T13:32:36.450Z,1.90
2019-01-13T13:35:59.994Z,1.77
2019-01-13T13:39:12.826Z,1.60
2019-01-13T13:42:13.975Z,2.30
2019-01-13T13:45:20.175Z,1.90
2019-01-13T13:48:33.299Z,2.00
2019-01-13T13:51:41.945Z,1.60
2019-01-13T13:54:47.840Z,2.37
2019-01-13T14:01:03.431Z,1.80
2019-01-13T14:04:14.230Z,1.90
2019-01-13T14:07:17.555Z,2.23
2019-01-13T14:13:55.811Z,2.10
2019-01-13T14:17:01.259Z,1.67
2019-01-13T14:20:13.335Z,1.67
2019-01-13T14:23:17.770Z,1.73
2019-01-13T14:26:22.121Z,1.50
2019-01-13T14:29:26.407Z,2.30
2019-01-13T14:32:30.795Z,2.60
2019-01-13T14:35:35.180Z,1.90
2019-01-13T14:38:39.576Z,1.67
2019-01-13T14:41:43.872Z,3.30
2019-01-13T14:44:48.235Z,8.70
2019-01-13T14:47:52.874Z,2.03
2019-01-13T14:50:58.526Z,3.90
2019-01-13T14:54:02.796Z,8.30
2019-01-13T14:57:07.163Z,8.20
2019-01-13T15:00:20.722Z,2.83
2019-01-13T15:03:25.157Z,3.37
2019-01-13T15:06:29.525Z,5.47
2019-01-13T15:09:34.060Z,8.77
2019-01-13T15:12:38.566Z,2.80
2019-01-13T15:15:42.854Z,2.30
2019-01-13T15:18:47.227Z,2.13
2019-01-13T15:21:51.665Z,2.13
2019-01-13T15:24:56.046Z,2.80
2019-01-13T15:28:00.479Z,4.00
2019-01-13T15:31:04.764Z,4.00
2019-01-13T15:34:09.039Z,2.07
2019-01-13T15:37:15.037Z,1.97
2019-01-13T15:40:25.245Z,1.70
2019-01-13T15:43:29.401Z,3.30
2019-01-13T15:46:38.784Z,4.20
2019-01-13T15:49:45.707Z,3.60
2019-01-13T15:52:51.149Z,5.50
2019-01-13T15:55:55.922Z,8.00
2019-01-13T15:59:02.061Z,5.07
2019-01-13T16:05:41.787Z,7.87
2019-01-13T16:08:56.759Z,10.17
2019-01-13T16:12:15.150Z,8.97
2019-01-13T16:15:22.046Z,9.43
2019-01-13T16:18:26.489Z,10.90
2019-01-13T16:21:30.850Z,13.23
2019-01-13T16:24:37.953Z,10.83
2019-01-13T16:27:42.381Z,9.20
2019-01-13T16:30:46.786Z,13.30
2019-01-13T16:33:51.130Z,15.17
2019-01-13T16:36:55.531Z,5.57
2019-01-13T16:39:59.955Z,13.60
2019-01-13T16:43:04.251Z,5.23
2019-01-13T16:46:10.750Z,11.93
2019-01-13T16:49:15.162Z,11.77
2019-01-13T16:52:21.735Z,9.77
2019-01-13T16:55:27.996Z,6.27
2019-01-13T16:58:32.498Z,8.53
2019-01-13T17:01:36.866Z,3.30
2019-01-13T17:04:41.219Z,3.03
2019-01-13T17:07:45.577Z,6.73
2019-01-13T17:10:49.934Z,5.50
2019-01-13T17:13:54.284Z,4.73
2019-01-13T17:16:58.622Z,6.20
2019-01-13T17:20:02.937Z,3.73
2019-01-13T17:23:07.267Z,4.77
2019-01-13T17:26:11.567Z,6.80
2019-01-13T17:29:15.900Z,9.53
2019-01-13T17:32:20.215Z,4.80
2019-01-13T17:35:24.510Z,6.10
2019-01-13T17:38:28.891Z,5.80
2019-01-13T17:41:33.211Z,6.10
2019-01-13T17:44:37.555Z,11.80
2019-01-13T17:47:45.319Z,11.43
2019-01-13T17:50:49.801Z,9.03
2019-01-13T17:53:54.185Z,9.13
2019-01-13T17:56:58.665Z,7.13
2019-01-13T18:00:03.055Z,14.60
2019-01-13T18:03:08.111Z,6.97
2019-01-13T18:06:12.479Z,8.47
2019-01-13T18:09:16.873Z,7.90
2019-01-13T18:12:21.405Z,11.80
2019-01-13T18:15:25.723Z,16.07
2019-01-13T18:18:30.190Z,11.00
2019-01-13T18:21:34.558Z,10.17
2019-01-13T18:24:38.941Z,10.90
2019-01-13T18:27:43.302Z,8.30
2019-01-13T18:30:47.660Z,9.73
2019-01-13T18:33:51.924Z,11.10
2019-01-13T18:36:56.244Z,6.57
2019-01-13T18:40:00.530Z,9.27
2019-01-13T18:43:04.825Z,10.17
2019-01-13T18:46:09.155Z,11.60
2019-01-13T18:49:13.501Z,11.93
2019-01-13T18:52:17.794Z,15.70
2019-01-13T18:55:22.094Z,4.80
2019-01-13T18:58:26.487Z,8.57
2019-01-13T19:01:30.802Z,9.33
2019-01-13T19:04:35.061Z,17.17
2019-01-13T19:07:39.465Z,10.00
2019-01-13T19:10:50.505Z,12.83
2019-01-13T19:14:22.965Z,8.33
2019-01-13T19:17:28.209Z,10.50
2019-01-13T19:20:35.712Z,13.83
2019-01-13T19:23:40.040Z,23.53
2019-01-13T19:26:44.433Z,11.07
2019-01-13T19:29:48.746Z,9.37
2019-01-13T19:32:53.106Z,16.93
2019-01-13T19:35:57.375Z,11.13
2019-01-13T19:39:01.768Z,17.00
2019-01-13T19:42:06.212Z,23.37
2019-01-13T19:45:12.826Z,14.43
2019-01-13T19:48:17.235Z,14.83
2019-01-13T19:51:23.620Z,10.60
2019-01-13T19:54:28.018Z,12.43
2019-01-13T19:57:36.344Z,14.13
2019-01-13T20:00:46.329Z,17.63
2019-01-13T20:03:52.952Z,11.73
2019-01-13T20:06:57.259Z,15.63
2019-01-13T20:10:01.678Z,11.07
2019-01-13T20:13:06.034Z,21.93
2019-01-13T20:16:10.371Z,12.27
2019-01-13T20:19:14.700Z,10.67
2019-01-13T20:22:19.098Z,16.43
2019-01-13T20:25:23.409Z,15.70
2019-01-13T20:28:27.828Z,12.87
2019-01-13T20:31:32.191Z,11.07
2019-01-13T20:34:36.526Z,13.43
2019-01-13T20:37:40.888Z,11.43
2019-01-13T20:40:45.233Z,14.60
2019-01-13T20:43:49.604Z,16.10
2019-01-13T20:46:53.964Z,19.03
2019-01-13T20:49:58.538Z,14.37
2019-01-13T20:53:03.125Z,15.67
2019-01-13T20:56:07.540Z,16.50
2019-01-13T20:59:11.859Z,8.73
2019-01-13T21:02:16.287Z,16.30
2019-01-13T21:05:26.532Z,11.03
2019-01-13T21:08:28.252Z,19.20
2019-01-13T21:11:32.645Z,15.53
2019-01-13T21:14:36.939Z,17.73
2019-01-13T21:17:41.298Z,12.03
2019-01-13T21:20:45.850Z,16.07
2019-01-13T21:23:50.224Z,11.83
2019-01-13T21:26:54.633Z,14.60
2019-01-13T21:30:01.731Z,16.63
2019-01-13T21:33:05.343Z,10.50
2019-01-13T21:36:09.733Z,10.30
2019-01-13T21:39:14.068Z,8.37
2019-01-13T21:42:18.444Z,9.20
2019-01-13T21:45:22.930Z,10.03
2019-01-13T21:48:27.218Z,9.83
2019-01-13T21:51:31.500Z,9.23
2019-01-13T21:54:35.795Z,15.73
2019-01-13T21:57:40.134Z,23.50
2019-01-13T22:00:44.483Z,11.60
2019-01-13T22:03:48.784Z,13.50
2019-01-13T22:06:53.110Z,10.17
2019-01-13T22:09:57.503Z,14.80
2019-01-13T22:13:01.843Z,13.30
2019-01-13T22:16:06.152Z,15.20
2019-01-13T22:19:10.504Z,23.30
2019-01-13T22:22:14.873Z,12.27
2019-01-13T22:25:19.243Z,16.90
2019-01-13T22:28:23.648Z,12.70
2019-01-13T22:31:27.978Z,13.93
2019-01-13T22:34:32.299Z,13.77
2019-01-13T22:37:36.603Z,14.77
2019-01-13T22:40:40.940Z,15.13
2019-01-13T22:43:45.337Z,15.43
2019-01-13T22:46:49.723Z,10.13
2019-01-13T22:49:54.068Z,10.70
2019-01-13T22:52:58.446Z,13.47
2019-01-13T22:56:02.763Z,11.27
2019-01-13T22:59:07.145Z,15.97
2019-01-13T23:02:11.519Z,17.43
2019-01-13T23:05:15.856Z,14.10
2019-01-13T23:08:20.174Z,14.13
2019-01-13T23:11:24.485Z,12.17
2019-01-13T23:14:28.779Z,13.57
2019-01-13T23:17:33.070Z,9.13
2019-01-13T23:20:37.385Z,13.70
2019-01-13T23:23:41.671Z,14.27
2019-01-13T23:26:45.965Z,11.73
2019-01-13T23:29:50.297Z,13.40
2019-01-13T23:32:54.624Z,11.50
2019-01-13T23:36:02.766Z,8.60
2019-01-13T23:39:07.793Z,17.97
2019-01-13T23:42:12.345Z,13.00
2019-01-13T23:45:16.702Z,13.50
2019-01-13T23:48:21.106Z,16.83
2019-01-13T23:51:25.453Z,10.20
2019-01-13T23:54:29.782Z,20.47
2019-01-13T23:57:34.065Z,13.97
